Bennington, NE

5:02 PM CST on February 13, 2016 (GMT -0600)
Meadow Ridge | | Change Station
CLOSE
Current Station
Personal Weather Station
Location: Bennington, NE
Elevation: 1191 ft
Nearby Weather Stations

Elev 1191 ft 41.34 °N, 96.16 °W | Updated 28 seconds ago

Overcast
Overcast
19.6 °F
Feels Like 11 °F
N
6.9
Wind Variable Wind from ESE
Gusts 11.0 mph

Today
High -- | Low -- °F
--% Chance of Precip.
Yesterday
High -- | Low -- °F
Precip. -- in
Pressure 30.29 in
Visibility 10.0 miles
Clouds Overcast 4000 ft
Windchill 11 °F
Dew Point 8 °F
Humidity 60%
Rainfall 0.00 in
Snow Depth Not available.
7:22 AM 5:55 PM
Waxing Crescent, 35% visible
METAR KBTA 132255Z AUTO 12013KT 10SM OVC040 M08/M15 A3029 RMK AO2 T10771146
Pressure 30.29 in
Visibility 10.0 miles
Clouds Overcast 4000 ft
Windchill 11 °F
Dew Point 8 °F
Humidity 60%
Rainfall 0.00 in
Snow Depth Not available.
7:22 AM 5:55 PM
Waxing Crescent, 35% visible
METAR KBTA 132255Z AUTO 12013KT 10SM OVC040 M08/M15 A3029 RMK AO2 T10771146

10-Day Weather Forecast

Almanac

Astronomy

Feb. 13, 2016 Rise Set
Actual Time
Civil Twilight
Nautical Twilight
Astronomical Twilight
Moon
Length of Visible Light
Length of Day
Tomorrow will be .
, % of the Moon is Illuminated

Today's Extremes

State Highs State Lows

Community

WunderPhotos

Upload Photos

1,892,692 photos uploaded!

WunderBlog® & News

Nearby

Air Quality

  Air Quality AQ Index Pollutant
Not available.

Snow Depth

Station Depth Elevation

Earthquake Activity

City Distance Mag. Time & Date
Minimum magnitude displayed is 2.5.

Coastal Water Temperatures

Place Temperature

Stations

Nearby Weather Stations

Station Location Temp. Windchill Dew Point Humidity Wind Precip. Elev Updated Type
                   

Watches & Warnings

There are currently no watches in effect.